Time;durP1;ratioP1;P1;durP2;ratioP2;P2;SDS_P1;SDS_P2;PMS_P1;PMS_P2;Temp;Humidity;BMP_temperature;BMP_pressure;BME280_temperature;BME280_humidity;BME280_pressure;Samples;Min_cycle;Max_cycle;Signal;HPM_P1;HPM_P2
2024/01/28 00:00:18;;;;;;;;;38.75;26.25;;;;;3.67;100.00;102921.88;5061812;27;45473;-78
2024/01/28 00:02:43;;;;;;;;;40.25;30.25;;;;;3.54;100.00;102901.59;5076851;27;45313;-78
2024/01/28 00:05:13;;;;;;;;;33.75;28.50;;;;;3.68;100.00;102907.94;5087316;27;47513;-78
2024/01/28 00:07:38;;;;;;;;;29.00;28.00;;;;;3.59;100.00;102887.75;5077289;28;45415;-79
2024/01/28 00:10:04;;;;;;;;;34.50;32.50;;;;;3.72;100.00;102883.59;5060941;28;45442;-78
2024/01/28 00:12:30;;;;;;;;;35.75;30.00;;;;;3.39;100.00;102818.56;5060581;28;45421;-78
2024/01/28 00:14:56;;;;;;;;;37.50;29.50;;;;;3.57;100.00;102850.22;5057136;28;46923;-78
2024/01/28 00:17:21;;;;;;;;;32.25;30.00;;;;;3.58;100.00;102841.53;5079342;28;45392;-78
2024/01/28 00:19:46;;;;;;;;;25.75;24.25;;;;;3.65;100.00;102840.75;5074553;28;45550;-78
2024/01/28 00:22:12;;;;;;;;;14.00;10.00;;;;;3.73;100.00;102855.69;5072128;28;45368;-78
2024/01/28 00:24:37;;;;;;;;;39.00;29.50;;;;;3.37;100.00;102785.44;5081558;27;45490;-78
2024/01/28 00:27:03;;;;;;;;;33.50;30.25;;;;;3.65;100.00;102834.63;5078728;28;58470;-78
2024/01/28 00:29:31;;;;;;;;;30.25;26.75;;;;;3.14;100.00;102777.25;5076686;28;45408;-78
2024/01/28 00:31:57;;;;;;;;;31.75;30.00;;;;;3.66;100.00;102846.88;5081953;27;45330;-78
2024/01/28 00:34:23;;;;;;;;;28.00;26.75;;;;;3.24;100.00;102805.25;5078670;28;45556;-79
2024/01/28 00:36:49;;;;;;;;;27.50;25.75;;;;;3.56;100.00;102838.00;5077833;28;45330;-78
2024/01/28 00:39:14;;;;;;;;;28.75;23.50;;;;;3.58;100.00;102858.94;5078738;28;45758;-78
2024/01/28 00:41:39;;;;;;;;;28.00;26.75;;;;;3.34;100.00;102811.53;5078480;28;45217;-78
2024/01/28 00:44:05;;;;;;;;;29.00;22.00;;;;;3.72;100.00;102874.84;5060220;28;47917;-79
2024/01/28 00:46:34;;;;;;;;;32.25;29.75;;;;;3.45;100.00;102821.28;5077201;28;46083;-79
2024/01/28 00:49:01;;;;;;;;;27.50;25.00;;;;;3.73;100.00;102864.38;5058527;28;45420;-78
2024/01/28 00:51:27;;;;;;;;;27.00;26.00;;;;;3.55;100.00;102832.75;5077470;28;45318;-79
2024/01/28 00:53:52;;;;;;;;;32.75;23.50;;;;;3.44;100.00;102803.81;5076629;28;46840;-79
2024/01/28 00:56:17;;;;;;;;;23.50;21.25;;;;;3.66;100.00;102847.72;5060773;28;45756;-79
2024/01/28 00:58:44;;;;;;;;;31.50;29.00;;;;;3.05;100.00;102737.88;5075174;28;45376;-79
2024/01/28 01:01:09;;;;;;;;;31.75;26.50;;;;;3.55;100.00;102822.28;5077134;28;45488;-79
2024/01/28 01:03:35;;;;;;;;;26.50;23.25;;;;;3.57;100.00;102837.13;5076702;28;46594;-79
2024/01/28 01:06:00;;;;;;;;;35.00;27.00;;;;;3.60;100.00;102842.41;5077131;28;46083;-79
2024/01/28 01:08:25;;;;;;;;;28.75;26.00;;;;;3.49;100.00;102822.19;5074232;28;45814;-79
2024/01/28 01:10:51;;;;;;;;;28.75;25.00;;;;;3.45;100.00;102815.16;5082108;27;45532;-79
2024/01/28 01:13:17;;;;;;;;;26.75;24.75;;;;;3.36;100.00;102813.31;5059882;28;45468;-79
2024/01/28 01:15:43;;;;;;;;;30.25;27.00;;;;;3.44;100.00;102822.13;5061387;28;45426;-79
2024/01/28 01:18:08;;;;;;;;;26.25;19.75;;;;;3.59;100.00;102850.25;5079496;28;45368;-79
2024/01/28 01:20:33;;;;;;;;;24.00;23.25;;;;;3.43;100.00;102843.94;5080324;28;45537;-79
2024/01/28 01:22:59;;;;;;;;;30.50;24.50;;;;;3.53;100.00;102837.94;5063565;28;46538;-80
2024/01/28 01:25:24;;;;;;;;;30.25;26.25;;;;;3.49;100.00;102838.78;5063591;28;45433;-79
2024/01/28 01:27:52;;;;;;;;;27.50;22.50;;;;;3.47;100.00;102832.63;5063485;28;45364;-79
2024/01/28 01:30:18;;;;;;;;;25.25;22.25;;;;;3.38;100.00;102819.44;5063299;28;45461;-79
2024/01/28 01:32:43;;;;;;;;;28.75;24.50;;;;;3.31;100.00;102804.50;5080007;28;45503;-79
2024/01/28 01:35:09;;;;;;;;;25.25;23.00;;;;;3.34;100.00;102808.91;5063892;28;45313;-79
2024/01/28 01:37:34;;;;;;;;;26.25;25.25;;;;;3.18;100.00;102779.03;5080596;28;45355;-79
2024/01/28 01:40:00;;;;;;;;;26.00;22.25;;;;;3.12;100.00;102768.47;5063870;28;45964;-79
2024/01/28 01:42:26;;;;;;;;;32.25;26.50;;;;;3.29;100.00;102803.59;5080521;28;46618;-79
2024/01/28 01:44:52;;;;;;;;;25.00;22.25;;;;;3.22;100.00;102787.81;5063069;28;45306;-79
2024/01/28 01:47:18;;;;;;;;;33.50;28.50;;;;;3.11;100.00;102771.94;5082128;28;45437;-79
2024/01/28 01:49:44;;;;;;;;;26.25;23.75;;;;;3.21;100.00;102779.06;5081395;28;45367;-79
2024/01/28 01:52:13;;;;;;;;;27.00;22.75;;;;;3.07;100.00;102747.53;5062921;28;47023;-79
2024/01/28 01:54:38;;;;;;;;;22.75;21.75;;;;;3.14;100.00;102769.41;5081229;28;45397;-79
2024/01/28 01:57:04;;;;;;;;;32.00;26.50;;;;;3.08;100.00;102766.69;5062984;28;45713;-79
2024/01/28 01:59:30;;;;;;;;;24.25;20.50;;;;;3.00;100.00;102745.69;5081348;28;45390;-79
2024/01/28 02:01:59;;;;;;;;;18.50;17.50;;;;;3.04;100.00;102759.66;5075459;28;47789;-80
2024/01/28 02:04:24;;;;;;;;;25.50;21.25;;;;;2.97;100.00;102743.03;5071777;28;45528;-79
2024/01/28 02:06:50;;;;;;;;;29.00;25.00;;;;;3.09;100.00;102765.81;5070587;28;45355;-79
2024/01/28 02:09:15;;;;;;;;;25.75;21.50;;;;;3.14;100.00;102779.88;5094621;27;45493;-79
2024/01/28 02:11:41;;;;;;;;;24.75;18.50;;;;;3.08;100.00;102772.78;5101357;27;45343;-79
2024/01/28 02:14:07;;;;;;;;;16.25;15.00;;;;;3.07;100.00;102764.94;5099260;27;45249;-79
2024/01/28 02:16:32;;;;;;;;;25.25;21.25;;;;;3.02;100.00;102779.66;5083002;27;45572;-80
2024/01/28 02:18:58;;;;;;;;;22.00;21.50;;;;;2.95;100.00;102768.22;5096663;27;45462;-79
2024/01/28 02:21:23;;;;;;;;;31.75;26.25;;;;;3.04;100.00;102777.97;5079458;28;45249;-80
2024/01/28 02:23:48;;;;;;;;;21.50;18.50;;;;;3.08;100.00;102778.00;5074450;27;45295;-79
2024/01/28 02:26:14;;;;;;;;;29.00;22.00;;;;;3.03;100.00;102768.34;5082668;27;45274;-79
2024/01/28 02:28:42;;;;;;;;;24.25;20.25;;;;;2.91;100.00;102753.34;5101028;27;45574;-79
2024/01/28 02:31:07;;;;;;;;;26.50;21.75;;;;;2.93;100.00;102763.84;5102146;27;46388;-79
2024/01/28 02:33:33;;;;;;;;;23.00;19.50;;;;;2.91;100.00;102752.50;5101036;27;53882;-79
2024/01/28 02:35:58;;;;;;;;;30.00;24.00;;;;;2.92;100.00;102754.22;5082311;27;45466;-79
2024/01/28 02:38:23;;;;;;;;;28.25;22.00;;;;;2.99;100.00;102756.97;5082914;27;45386;-80
2024/01/28 02:40:52;;;;;;;;;24.25;21.50;;;;;2.89;100.00;102743.72;5099647;27;46984;-79
2024/01/28 02:43:17;;;;;;;;;28.00;21.25;;;;;2.79;100.00;102721.81;5104752;27;45611;-79
2024/01/28 02:45:42;;;;;;;;;26.00;23.25;;;;;2.95;100.00;102749.06;5100835;27;45501;-79
2024/01/28 02:48:07;;;;;;;;;20.25;17.75;;;;;2.93;100.00;102763.84;5101141;27;45356;-79
2024/01/28 02:50:33;;;;;;;;;25.25;21.50;;;;;2.73;100.00;102724.34;5088267;27;50283;-79
2024/01/28 02:52:58;;;;;;;;;30.75;24.50;;;;;2.65;100.00;102702.44;5082596;27;45311;-79
2024/01/28 02:55:23;;;;;;;;;30.50;22.50;;;;;2.86;100.00;102746.31;5101306;27;45268;-79
2024/01/28 02:57:49;;;;;;;;;22.00;20.75;;;;;2.87;100.00;102751.56;5084132;27;45331;-79
2024/01/28 03:00:15;;;;;;;;;23.50;21.00;;;;;2.80;100.00;102739.25;5099690;27;46184;-78
2024/01/28 03:02:40;;;;;;;;;14.00;10.50;;;;;2.73;100.00;102711.28;5082345;27;45381;-79
2024/01/28 03:05:09;;;;;;;;;27.50;22.50;;;;;2.77;100.00;102718.31;5081913;27;45334;-79
2024/01/28 03:07:34;;;;;;;;;25.50;22.00;;;;;2.72;100.00;102712.13;5099256;27;45399;-79
2024/01/28 03:10:02;;;;;;;;;25.75;21.75;;;;;2.76;100.00;102710.44;5082286;27;48326;-79
2024/01/28 03:12:28;;;;;;;;;26.25;24.00;;;;;2.79;100.00;102715.72;5100512;27;45434;-79
2024/01/28 03:14:53;;;;;;;;;26.00;22.50;;;;;2.73;100.00;102705.16;5100327;27;45237;-79
2024/01/28 03:17:18;;;;;;;;;30.25;25.00;;;;;2.78;100.00;102714.81;5099538;27;45443;-79
2024/01/28 03:19:44;;;;;;;;;22.50;21.25;;;;;2.47;100.00;102649.91;5079189;28;47656;-79
2024/01/28 03:22:09;;;;;;;;;22.25;21.75;;;;;2.60;100.00;102667.53;5098355;27;45402;-79
2024/01/28 03:24:35;;;;;;;;;32.50;24.25;;;;;2.72;100.00;102698.19;5089107;27;45537;-79
2024/01/28 03:27:00;;;;;;;;;32.50;25.50;;;;;2.41;100.00;102642.88;5100602;27;45230;-80
2024/01/28 03:29:25;;;;;;;;;25.00;25.00;;;;;2.74;100.00;102691.25;5084267;27;56923;-79
2024/01/28 03:31:51;;;;;;;;;25.00;20.25;;;;;2.50;100.00;102656.06;5098653;27;50406;-80
2024/01/28 03:34:16;;;;;;;;;26.50;19.75;;;;;2.71;100.00;102679.03;5100512;27;45774;-79
2024/01/28 03:36:42;;;;;;;;;24.00;22.50;;;;;2.72;100.00;102685.13;5094977;27;45358;-79
2024/01/28 03:39:07;;;;;;;;;28.00;22.75;;;;;2.72;100.00;102686.00;5098861;27;45384;-80
2024/01/28 03:41:32;;;;;;;;;25.25;23.00;;;;;2.37;100.00;102624.53;5082533;27;45430;-80
2024/01/28 03:43:58;;;;;;;;;10.50;6.50;;;;;2.52;100.00;102650.88;5093708;27;45617;-79
2024/01/28 03:46:23;;;;;;;;;26.25;26.00;;;;;2.45;100.00;102644.69;5078389;28;45476;-79
2024/01/28 03:48:49;;;;;;;;;25.25;23.50;;;;;2.51;100.00;102657.84;5079992;27;47729;-79
2024/01/28 03:51:14;;;;;;;;;28.00;21.75;;;;;2.48;100.00;102644.75;5099702;27;45394;-80
2024/01/28 03:53:40;;;;;;;;;26.75;22.00;;;;;2.61;100.00;102661.47;5103128;27;45304;-79
2024/01/28 03:56:06;;;;;;;;;26.50;21.50;;;;;2.71;100.00;102675.53;5100231;27;45355;-79
2024/01/28 03:58:31;;;;;;;;;22.25;20.50;;;;;2.74;100.00;102675.59;5077489;28;48140;-79
2024/01/28 04:00:57;;;;;;;;;23.00;21.25;;;;;2.42;100.00;102612.44;5098032;27;45355;-79
2024/01/28 04:03:22;;;;;;;;;24.75;23.25;;;;;2.59;100.00;102642.25;5097170;27;45284;-79
2024/01/28 04:05:47;;;;;;;;;24.00;21.75;;;;;2.45;100.00;102607.25;5098918;27;48491;-79
2024/01/28 04:08:13;;;;;;;;;27.00;25.50;;;;;2.53;100.00;102616.06;5099930;27;45465;-79
2024/01/28 04:10:38;;;;;;;;;25.25;22.25;;;;;2.60;100.00;102628.38;5079105;27;45310;-79
2024/01/28 04:13:04;;;;;;;;;28.50;25.50;;;;;2.77;100.00;102663.44;5100145;27;45419;-79
2024/01/28 04:15:29;;;;;;;;;27.00;20.50;;;;;2.74;100.00;102655.56;5099655;27;45387;-79
2024/01/28 04:17:54;;;;;;;;;20.75;18.50;;;;;2.74;100.00;102659.91;5082109;27;46086;-79
2024/01/28 04:20:20;;;;;;;;;22.50;20.00;;;;;2.61;100.00;102633.63;5101383;27;45294;-79
2024/01/28 04:22:45;;;;;;;;;26.75;19.00;;;;;2.72;100.00;102645.94;5098158;27;46050;-79
2024/01/28 04:25:12;;;;;;;;;21.75;20.50;;;;;2.85;100.00;102663.53;5099421;27;45202;-79
2024/01/28 04:27:38;;;;;;;;;21.50;17.75;;;;;2.65;100.00;102624.06;5080748;27;48128;-79
2024/01/28 04:30:05;;;;;;;;;23.50;17.50;;;;;2.77;100.00;102646.88;5080467;27;45370;-79
2024/01/28 04:32:32;;;;;;;;;19.50;19.25;;;;;2.33;100.00;102579.22;5099552;27;45465;-79
2024/01/28 04:34:58;;;;;;;;;21.75;21.75;;;;;2.74;100.00;102650.34;5080721;27;46337;-79
2024/01/28 04:37:26;;;;;;;;;24.00;22.25;;;;;2.06;100.00;102545.75;5080828;27;48084;-80
2024/01/28 04:39:51;;;;;;;;;22.00;19.50;;;;;2.36;100.00;102594.03;5098984;27;45482;-79
2024/01/28 04:42:22;;;;;;;;;25.25;22.00;;;;;2.48;100.00;102629.06;5098949;27;45506;-79
2024/01/28 04:44:50;;;;;;;;;18.50;15.25;;;;;2.65;100.00;102673.69;5096789;27;45505;-79
2024/01/28 04:47:16;;;;;;;;;19.75;18.25;;;;;2.81;100.00;102665.25;5080707;27;45344;-79
2024/01/28 04:49:42;;;;;;;;;26.50;18.50;;;;;2.66;100.00;102644.13;5094934;27;45335;-79
2024/01/28 04:52:08;;;;;;;;;19.75;16.50;;;;;2.60;100.00;102637.06;5081120;27;45407;-79
2024/01/28 04:54:33;;;;;;;;;19.50;16.25;;;;;2.63;100.00;102654.53;5088245;27;45553;-79
2024/01/28 04:57:01;;;;;;;;;17.25;16.00;;;;;2.74;100.00;102659.91;5082215;27;47036;-79
2024/01/28 04:59:26;;;;;;;;;21.50;17.00;;;;;2.50;100.00;102616.91;5099380;27;45425;-79
2024/01/28 05:01:51;;;;;;;;;20.75;16.75;;;;;2.17;100.00;102586.78;5091177;27;45287;-79
2024/01/28 05:04:17;;;;;;;;;27.25;17.50;;;;;2.41;100.00;102601.09;5088149;27;45479;-80
2024/01/28 05:06:42;;;;;;;;;22.25;20.00;;;;;2.42;100.00;102615.03;5097897;27;45201;-81
2024/01/28 05:09:10;;;;;;;;;24.75;21.00;;;;;2.54;100.00;102647.44;5056732;28;45254;-80
2024/01/28 05:11:35;;;;;;;;;15.50;15.50;;;;;2.40;100.00;102619.34;5068863;27;45279;-79
2024/01/28 05:14:00;;;;;;;;;19.25;15.50;;;;;2.49;100.00;102636.03;5065213;28;45245;-80
2024/01/28 05:16:27;;;;;;;;;22.00;16.75;;;;;2.35;100.00;102618.41;5056209;28;46887;-80
2024/01/28 05:18:52;;;;;;;;;27.00;20.25;;;;;2.56;100.00;102657.91;5058023;28;46558;-79
2024/01/28 05:21:18;;;;;;;;;19.50;17.50;;;;;2.47;100.00;102657.75;5056820;28;45557;-79
2024/01/28 05:23:45;;;;;;;;;23.00;16.25;;;;;2.24;100.00;102625.19;5057922;28;45405;-80
2024/01/28 05:26:11;;;;;;;;;17.25;16.75;;;;;2.24;100.00;102627.78;5073665;28;47387;-79
2024/01/28 05:28:37;;;;;;;;;20.50;16.00;;;;;2.31;100.00;102638.38;5076278;27;45344;-80
2024/01/28 05:31:02;;;;;;;;;22.75;18.75;;;;;2.37;100.00;102663.69;5078783;28;45303;-80
2024/01/28 05:33:28;;;;;;;;;19.25;15.50;;;;;2.28;100.00;102634.81;5056889;28;45484;-79
2024/01/28 05:35:53;;;;;;;;;17.00;16.50;;;;;2.01;100.00;102596.09;5077316;27;45283;-79
2024/01/28 05:38:19;;;;;;;;;25.00;21.50;;;;;2.23;100.00;102639.06;5076422;28;45297;-79
2024/01/28 05:40:44;;;;;;;;;22.25;16.50;;;;;2.18;100.00;102630.31;5080929;27;45378;-79
2024/01/28 05:43:09;;;;;;;;;18.50;16.50;;;;;2.20;100.00;102645.13;5070333;28;45219;-79
2024/01/28 05:45:35;;;;;;;;;17.25;16.00;;;;;1.60;100.00;102566.72;5078799;28;45386;-80
2024/01/28 05:48:01;;;;;;;;;24.25;16.00;;;;;2.28;100.00;102647.88;5059995;28;53453;-79
2024/01/28 05:50:30;;;;;;;;;16.50;16.50;;;;;2.14;100.00;102636.31;5061729;28;45564;-80
2024/01/28 05:52:55;;;;;;;;;15.50;13.75;;;;;2.26;100.00;102660.03;5063593;28;45424;-80
2024/01/28 05:55:20;;;;;;;;;21.00;17.75;;;;;2.12;100.00;102636.31;5079653;27;46827;-80
2024/01/28 05:57:46;;;;;;;;;24.50;19.25;;;;;2.15;100.00;102632.88;5092547;27;45345;-80
2024/01/28 06:00:12;;;;;;;;;20.75;15.00;;;;;2.22;100.00;102643.44;5074572;28;45456;-80
2024/01/28 06:02:38;;;;;;;;;16.75;14.25;;;;;2.20;100.00;102639.03;5060920;28;45693;-79
2024/01/28 06:05:04;;;;;;;;;29.00;19.75;;;;;2.07;100.00;102622.28;5063582;28;47300;-79
2024/01/28 06:07:29;;;;;;;;;21.50;17.50;;;;;2.05;100.00;102627.50;5090107;27;45436;-79
2024/01/28 06:09:55;;;;;;;;;19.50;17.00;;;;;2.10;100.00;102636.28;5102958;27;45300;-80
2024/01/28 06:12:20;;;;;;;;;19.50;17.50;;;;;1.93;100.00;102600.34;5107958;27;45367;-80
2024/01/28 06:14:46;;;;;;;;;17.25;15.50;;;;;2.14;100.00;102626.78;5094470;27;45483;-80
2024/01/28 06:17:11;;;;;;;;;21.00;19.25;;;;;2.06;100.00;102612.72;5109169;27;45320;-80
2024/01/28 06:19:36;;;;;;;;;19.25;19.00;;;;;2.17;100.00;102632.03;5108133;27;45314;-80
2024/01/28 06:22:02;;;;;;;;;22.25;20.25;;;;;1.94;100.00;102586.41;5087385;27;45451;-79
2024/01/28 06:24:30;;;;;;;;;27.50;20.75;;;;;2.21;100.00;102633.84;5100000;27;47531;-79
2024/01/28 06:26:55;;;;;;;;;22.75;19.00;;;;;2.03;100.00;102602.22;5100615;27;45402;-79
2024/01/28 06:29:21;;;;;;;;;21.25;16.00;;;;;1.89;100.00;102575.03;5099642;27;45391;-79
2024/01/28 06:31:46;;;;;;;;;19.50;18.50;;;;;2.09;100.00;102589.28;5101461;27;45314;-79
2024/01/28 06:34:11;;;;;;;;;19.75;15.75;;;;;2.19;100.00;102598.16;5082236;28;48174;-79
2024/01/28 06:36:37;;;;;;;;;20.25;17.75;;;;;1.95;100.00;102542.09;5070174;27;45271;-79
2024/01/28 06:39:02;;;;;;;;;18.50;18.50;;;;;2.00;100.00;102549.97;5084462;27;45276;-79
2024/01/28 06:41:28;;;;;;;;;22.75;18.25;;;;;2.25;100.00;102583.47;5086299;27;45320;-79
2024/01/28 06:43:53;;;;;;;;;29.25;17.75;;;;;2.17;100.00;102573.72;5101750;27;45392;-80
2024/01/28 06:46:19;;;;;;;;;23.75;18.50;;;;;2.26;100.00;102587.81;5103881;27;45404;-79
2024/01/28 06:48:45;;;;;;;;;18.50;14.25;;;;;2.22;100.00;102577.31;5085683;27;45242;-79
2024/01/28 06:51:10;;;;;;;;;14.25;13.75;;;;;2.09;100.00;102537.09;5077202;27;45293;-79
2024/01/28 06:53:37;;;;;;;;;19.75;17.00;;;;;2.20;100.00;102566.84;5100353;27;46509;-80
2024/01/28 06:56:02;;;;;;;;;19.50;17.50;;;;;2.14;100.00;102545.88;5085170;27;45542;-80
2024/01/28 06:58:27;;;;;;;;;19.25;15.00;;;;;2.34;100.00;102574.88;5078903;28;45382;-79
2024/01/28 07:00:53;;;;;;;;;16.00;16.00;;;;;2.31;100.00;102569.63;5097573;27;45300;-79
2024/01/28 07:03:19;;;;;;;;;21.25;19.00;;;;;2.23;100.00;102559.03;5099354;27;46166;-79
2024/01/28 07:05:45;;;;;;;;;12.25;10.25;;;;;2.12;100.00;102538.88;5100463;27;45456;-79
2024/01/28 07:08:10;;;;;;;;;20.00;16.50;;;;;2.00;100.00;102531.72;5083762;27;45386;-79
2024/01/28 07:10:36;;;;;;;;;17.50;12.75;;;;;2.05;100.00;102549.22;5079583;28;45435;-79
2024/01/28 07:13:03;;;;;;;;;23.50;19.25;;;;;1.95;100.00;102533.41;5080118;28;46351;-80
2024/01/28 07:15:29;;;;;;;;;18.00;15.00;;;;;1.91;100.00;102529.84;5079882;28;45420;-79
2024/01/28 07:17:55;;;;;;;;;13.50;13.00;;;;;2.06;100.00;102563.16;5058645;28;45358;-79
2024/01/28 07:20:20;;;;;;;;;15.75;15.75;;;;;2.04;100.00;102550.06;5073484;28;45455;-79
2024/01/28 07:22:45;;;;;;;;;17.75;16.50;;;;;2.21;100.00;102578.16;5072023;28;46136;-79
2024/01/28 07:25:13;;;;;;;;;14.25;10.75;;;;;2.16;100.00;102580.69;5058389;28;45318;-79
2024/01/28 07:27:39;;;;;;;;;14.00;13.75;;;;;2.02;100.00;102556.13;5057417;28;45367;-79
2024/01/28 07:30:06;;;;;;;;;15.75;14.00;;;;;2.15;100.00;102588.50;5048542;28;45586;-80
2024/01/28 07:32:31;;;;;;;;;19.00;16.25;;;;;2.11;100.00;102587.56;5078289;28;45484;-79
2024/01/28 07:34:57;;;;;;;;;24.50;15.00;;;;;2.06;100.00;102571.84;5072397;28;45496;-78
2024/01/28 07:37:22;;;;;;;;;16.75;15.00;;;;;2.16;100.00;102596.34;5069447;28;45267;-79
2024/01/28 07:39:47;;;;;;;;;19.00;16.75;;;;;2.00;100.00;102576.06;5069574;28;45242;-79
2024/01/28 07:42:13;;;;;;;;;18.25;14.50;;;;;1.73;100.00;102529.56;5077865;28;57018;-79
2024/01/28 07:44:39;;;;;;;;;19.50;16.00;;;;;1.88;100.00;102561.13;5078889;28;45485;-79
2024/01/28 07:47:04;;;;;;;;;26.75;19.50;;;;;1.98;100.00;102575.19;5075281;28;45456;-79
2024/01/28 07:49:30;;;;;;;;;18.00;17.75;;;;;1.96;100.00;102569.06;5077123;28;45379;-79
2024/01/28 07:51:55;;;;;;;;;22.25;15.75;;;;;2.13;100.00;102601.50;5058855;28;45323;-78
2024/01/28 07:54:21;;;;;;;;;19.25;17.50;;;;;2.05;100.00;102577.03;5060938;28;45483;-79
2024/01/28 07:56:46;;;;;;;;;24.25;22.00;;;;;1.89;100.00;102555.06;5047291;28;45367;-79
2024/01/28 07:59:11;;;;;;;;;24.25;17.75;;;;;2.01;100.00;102565.69;5077514;28;54222;-79
2024/01/28 08:01:37;;;;;;;;;21.00;17.50;;;;;1.68;100.00;102506.84;5074687;28;47757;-79
2024/01/28 08:04:02;;;;;;;;;20.50;19.00;;;;;2.12;100.00;102578.03;5073030;28;45746;-79
2024/01/28 08:06:28;;;;;;;;;22.75;19.50;;;;;2.18;100.00;102583.34;5061963;27;45298;-79
2024/01/28 08:08:53;;;;;;;;;17.00;17.00;;;;;1.68;100.00;102497.31;5085668;27;45337;-79
2024/01/28 08:11:19;;;;;;;;;21.25;20.00;;;;;1.51;100.00;102481.38;5062548;28;47188;-79
2024/01/28 08:13:45;;;;;;;;;17.50;15.25;;;;;2.29;100.00;102605.28;5074960;27;45315;-79
2024/01/28 08:16:10;;;;;;;;;25.50;19.75;;;;;2.32;100.00;102603.59;5071407;28;45399;-79
2024/01/28 08:18:36;;;;;;;;;23.00;19.00;;;;;2.18;100.00;102567.66;5095718;27;45510;-79
2024/01/28 08:21:01;;;;;;;;;24.00;18.25;;;;;1.61;100.00;102478.91;5090058;27;46828;-79
2024/01/28 08:23:27;;;;;;;;;20.25;20.25;;;;;1.41;100.00;102452.53;5072841;27;45626;-79
2024/01/28 08:25:58;;;;;;;;;21.25;17.75;;;;;1.50;100.00;102452.69;5085952;27;45361;-79
2024/01/28 08:28:27;;;;;;;;;22.25;20.00;;;;;1.48;100.00;102444.84;5077066;27;45498;-79
2024/01/28 08:30:56;;;;;;;;;23.25;20.00;;;;;1.92;100.00;102491.59;5089584;27;46418;-79
2024/01/28 08:33:22;;;;;;;;;28.00;24.25;;;;;1.75;100.00;102438.31;5077471;27;46251;-79
2024/01/28 08:35:53;;;;;;;;;31.75;22.50;;;;;1.76;100.00;102437.47;5080042;27;45372;-79
2024/01/28 08:38:22;;;;;;;;;24.50;23.25;;;;;1.63;100.00;102453.78;5088905;27;45491;-79
2024/01/28 08:40:51;;;;;;;;;26.25;22.25;;;;;2.80;100.00;102613.84;5077409;28;45681;-79
2024/01/28 08:43:19;;;;;;;;;31.00;23.25;;;;;2.23;100.00;102492.91;5083925;27;45383;-79
2024/01/28 08:45:44;;;;;;;;;28.00;21.25;;;;;1.90;100.00;102415.91;5080708;27;45988;-78
2024/01/28 08:48:09;;;;;;;;;25.50;21.25;;;;;2.70;100.00;102545.78;5085285;27;45304;-79
2024/01/28 08:50:35;;;;;;;;;26.00;19.25;;;;;2.92;100.00;102600.94;5097522;27;46327;-79
2024/01/28 08:53:00;;;;;;;;;21.75;18.75;;;;;2.61;100.00;102523.94;5082965;27;45379;-78
2024/01/28 08:55:26;;;;;;;;;18.75;15.75;;;;;2.54;100.00;102495.97;5075033;27;45403;-79
2024/01/28 08:57:51;;;;;;;;;24.25;23.00;;;;;3.11;100.00;102586.34;5057259;28;49496;-79
2024/01/28 09:00:17;;;;;;;;;27.00;23.25;;;;;3.10;100.00;102559.38;5069820;28;47043;-79
2024/01/28 09:02:42;;;;;;;;;20.75;20.50;;;;;3.35;100.00;102589.25;5078972;27;45466;-79
2024/01/28 09:05:08;;;;;;;;;29.25;25.00;;;;;3.33;100.00;102574.41;5079809;27;45338;-78
2024/01/28 09:07:36;;;;;;;;;23.00;22.25;;;;;3.25;100.00;102542.06;5071412;27;45443;-79
2024/01/28 09:10:02;;;;;;;;;32.00;25.75;;;;;3.20;100.00;102533.31;5078668;28;45617;-78
2024/01/28 09:12:27;;;;;;;;;30.50;26.25;;;;;3.47;100.00;102549.28;5078065;28;45449;-79
2024/01/28 09:14:52;;;;;;;;;35.00;28.50;;;;;3.53;100.00;102560.66;5056734;28;45317;-78
2024/01/28 09:17:18;;;;;;;;;32.50;26.00;;;;;3.66;100.00;102565.16;5058497;28;45350;-79
2024/01/28 09:19:43;;;;;;;;;32.00;25.25;;;;;3.48;100.00;102536.22;5066930;28;48388;-78
2024/01/28 09:22:08;;;;;;;;;25.50;23.75;;;;;3.78;100.00;102553.06;5077780;28;45462;-78
2024/01/28 09:24:34;;;;;;;;;34.50;26.50;;;;;3.86;100.00;102552.25;5075600;28;45347;-78
2024/01/28 09:27:01;;;;;;;;;29.50;24.75;;;;;3.96;100.00;102561.94;5059142;28;45509;-78
2024/01/28 09:29:27;;;;;;;;;26.50;25.75;;;;;3.93;100.00;102543.59;5072104;28;46148;-78
2024/01/28 09:31:53;;;;;;;;;29.75;27.25;;;;;4.04;100.00;102541.94;5057106;28;45564;-77
2024/01/28 09:34:19;;;;;;;;;32.00;27.00;;;;;3.90;100.00;102516.50;5078099;28;45311;-77
2024/01/28 09:36:44;;;;;;;;;28.75;26.50;;;;;4.24;100.00;102554.28;5078869;28;45623;-78
2024/01/28 09:39:11;;;;;;;;;33.50;32.00;;;;;3.99;100.00;102499.13;5081731;28;46097;-77
2024/01/28 09:41:52;;;;;;;;;30.75;23.50;;;;;4.23;100.00;102527.22;5072473;28;45554;-77
2024/01/28 09:44:18;;;;;;;;;33.25;30.75;;;;;4.35;100.00;102527.28;5077546;28;45361;-77
2024/01/28 09:46:44;;;;;;;;;25.75;25.50;;;;;4.38;100.00;102535.19;5072242;28;46732;-78
2024/01/28 09:49:11;;;;;;;;;33.25;29.50;;;;;4.27;100.00;102484.47;5067054;28;47194;-78
2024/01/28 09:51:38;;;;;;;;;26.50;24.75;;;;;4.59;100.00;102535.28;5079596;28;45463;-78
2024/01/28 09:54:03;;;;;;;;;29.50;25.25;;;;;4.51;100.00;102507.31;5079450;28;45429;-78
2024/01/28 09:56:29;;;;;;;;;29.50;26.00;;;;;4.87;100.00;102559.03;5080475;28;45242;-78
2024/01/28 09:58:55;;;;;;;;;25.25;23.25;;;;;4.93;100.00;102553.78;5075981;28;45418;-78
2024/01/28 10:01:21;;;;;;;;;32.75;30.00;;;;;5.04;100.00;102560.81;5076193;28;45289;-78
2024/01/28 10:03:48;;;;;;;;;25.75;24.00;;;;;5.03;100.00;102561.72;5062017;28;45556;-78
2024/01/28 10:06:13;;;;;;;;;28.50;20.00;;;;;4.84;100.00;102511.81;5079929;28;45562;-78
2024/01/28 10:08:40;;;;;;;;;27.50;24.25;;;;;4.74;100.00;102476.84;5088013;27;45551;-79
2024/01/28 10:11:06;;;;;;;;;21.25;21.25;;;;;5.23;100.00;102536.41;5083421;27;45393;-79
2024/01/28 10:13:32;;;;;;;;;19.25;17.00;;;;;5.62;100.00;102579.34;5096464;27;45477;-78
2024/01/28 10:16:00;;;;;;;;;20.00;17.75;;;;;5.20;100.00;102485.72;5073112;27;45471;-79
2024/01/28 10:21:12;;;;;;;;;23.75;18.75;;;;;5.19;100.00;102445.50;5081123;27;45453;-79
2024/01/28 10:23:37;;;;;;;;;19.50;16.75;;;;;5.91;100.00;102543.53;5078000;28;45246;-79
2024/01/28 10:26:06;;;;;;;;;16.75;16.75;;;;;5.23;100.00;102417.53;5095005;27;45614;-79
2024/01/28 10:28:34;;;;;;;;;21.00;17.25;;;;;5.57;100.00;102466.50;5081534;27;46333;-79
2024/01/28 10:31:00;;;;;;;;;22.50;19.75;;;;;5.98;100.00;102516.41;5081241;27;45363;-79
2024/01/28 10:33:25;;;;;;;;;15.25;14.25;;;;;5.87;100.00;102506.75;5080880;27;45306;-79
2024/01/28 10:35:52;;;;;;;;;19.00;17.00;;;;;6.06;100.00;102534.75;5069457;27;45398;-79
2024/01/28 10:38:26;;;;;;;;;20.50;19.00;;;;;5.98;100.00;102465.63;5090299;27;48289;-79
2024/01/28 10:40:59;;;;;;;;;18.00;16.00;;;;;5.61;100.00;102407.00;5074961;28;45375;-79
2024/01/28 10:43:30;;;;;;;;;22.50;18.00;;;;;5.64;100.00;102372.88;5095009;27;45498;-79
2024/01/28 10:45:56;;;;;;;;;20.75;18.50;;;;;6.32;100.00;102480.41;5079881;27;45452;-79
2024/01/28 10:48:23;;;;;;;;;13.00;11.00;;;;;6.87;100.00;102567.00;5095023;27;46979;-79
2024/01/28 10:50:51;;;;;;;;;19.25;14.75;;;;;6.30;100.00;102463.78;5078303;28;45518;-79
2024/01/28 10:53:35;;;;;;;;;18.33;16.33;;;;;7.03;100.00;102559.03;5078660;27;45509;-79
2024/01/28 10:56:01;;;;;;;;;20.25;18.00;;;;;6.56;100.00;102458.44;5094318;27;45459;-78
2024/01/28 10:58:30;;;;;;;;;21.50;18.50;;;;;6.33;100.00;102440.13;5078627;27;45366;-78
2024/01/28 11:00:55;;;;;;;;;20.75;19.50;;;;;7.00;100.00;102514.31;5076954;27;45430;-78
2024/01/28 11:03:24;;;;;;;;;18.25;16.25;;;;;7.15;100.00;102535.28;5062346;28;45421;-78
2024/01/28 11:05:49;;;;;;;;;27.00;20.00;;;;;6.68;100.00;102450.47;5077289;28;45335;-78